SCVD/ZAL METAR and TAF weather

Enter ICAO airport designator
Station Type Date Time Source
SCVD METAR 2022/01/26 14:00 UTC NOAA

SCVD 261400Z VRB03KT 9999 FEW040 18/12 Q1016


Station Type Date Time Source
SCVD Decoded METAR 2022/01/26 14:00 UTC NOAA

Valdivia, Chile (SCVD) 39-37S 073-05W
Jan 26, 2022 - 09:00 AM EST / 2022.01.26 1400 UTC
Wind: Variable at 3 MPH (3 KT):0
Visibility: greater than 7 mile(s):0
Sky conditions: mostly clear
Temperature: 64 F (18 C)
Dew Point: 53 F (12 C)
Relative Humidity: 67%
Pressure (altimeter): 30.00 in. Hg (1016 hPa)
ob: SCVD 261400Z VRB03KT 9999 FEW040 18/12 Q1016
cycle: 14

Station Type Date Time Source
SCVD TAF 2022/01/26 12:00 UTC NOAA

TAF SCVD 261007Z 2612/2624 15005KT CAVOK TN14/2612Z TX28/2619Z
BECMG 2615/2617 VRB02KT
TEMPO 2618/2621 29005KT

Example: see airport list